sensor_id;sensor_type;location;lat;lon;timestamp;P1;durP1;ratioP1;P2;durP2;ratioP2
63693;SDS011;49839;51.798;10.954;2022-11-15T00:01:06;7.45;;;4.15;;
63693;SDS011;49839;51.798;10.954;2022-11-15T00:03:34;7.13;;;3.45;;
63693;SDS011;49839;51.798;10.954;2022-11-15T00:06:03;8.73;;;4.03;;
63693;SDS011;49839;51.798;10.954;2022-11-15T00:08:32;8.80;;;4.25;;
63693;SDS011;49839;51.798;10.954;2022-11-15T00:11:00;10.45;;;4.07;;
63693;SDS011;49839;51.798;10.954;2022-11-15T00:13:29;8.18;;;3.35;;
63693;SDS011;49839;51.798;10.954;2022-11-15T00:15:58;6.07;;;2.90;;
63693;SDS011;49839;51.798;10.954;2022-11-15T00:18:26;8.65;;;3.78;;
63693;SDS011;49839;51.798;10.954;2022-11-15T00:20:54;7.07;;;4.20;;
63693;SDS011;49839;51.798;10.954;2022-11-15T00:23:23;6.95;;;3.80;;
63693;SDS011;49839;51.798;10.954;2022-11-15T00:25:57;6.97;;;3.60;;
63693;SDS011;49839;51.798;10.954;2022-11-15T00:28:25;8.48;;;3.67;;
63693;SDS011;49839;51.798;10.954;2022-11-15T00:30:54;8.45;;;4.20;;
63693;SDS011;49839;51.798;10.954;2022-11-15T00:33:27;9.95;;;4.32;;
63693;SDS011;49839;51.798;10.954;2022-11-15T00:35:59;7.82;;;3.65;;
63693;SDS011;49839;51.798;10.954;2022-11-15T00:38:31;8.48;;;4.28;;
63693;SDS011;49839;51.798;10.954;2022-11-15T00:41:00;8.75;;;3.80;;
63693;SDS011;49839;51.798;10.954;2022-11-15T00:43:34;6.45;;;3.65;;
63693;SDS011;49839;51.798;10.954;2022-11-15T00:46:02;7.15;;;3.10;;
63693;SDS011;49839;51.798;10.954;2022-11-15T00:48:31;8.15;;;3.85;;
63693;SDS011;49839;51.798;10.954;2022-11-15T00:50:59;9.15;;;4.15;;
63693;SDS011;49839;51.798;10.954;2022-11-15T00:53:27;7.03;;;3.30;;
63693;SDS011;49839;51.798;10.954;2022-11-15T00:55:56;6.75;;;3.13;;
63693;SDS011;49839;51.798;10.954;2022-11-15T00:58:24;7.37;;;3.40;;
63693;SDS011;49839;51.798;10.954;2022-11-15T01:00:52;6.22;;;3.35;;
63693;SDS011;49839;51.798;10.954;2022-11-15T01:03:20;8.30;;;3.22;;
63693;SDS011;49839;51.798;10.954;2022-11-15T01:05:47;7.10;;;2.92;;
63693;SDS011;49839;51.798;10.954;2022-11-15T01:08:15;8.80;;;3.70;;
63693;SDS011;49839;51.798;10.954;2022-11-15T01:10:43;8.52;;;3.15;;
63693;SDS011;49839;51.798;10.954;2022-11-15T01:13:12;8.43;;;4.13;;
63693;SDS011;49839;51.798;10.954;2022-11-15T01:15:40;4.10;;;1.93;;
63693;SDS011;49839;51.798;10.954;2022-11-15T01:18:08;7.10;;;2.95;;
63693;SDS011;49839;51.798;10.954;2022-11-15T01:20:38;6.00;;;3.58;;
63693;SDS011;49839;51.798;10.954;2022-11-15T01:23:06;7.45;;;3.45;;
63693;SDS011;49839;51.798;10.954;2022-11-15T01:25:34;6.28;;;3.20;;
63693;SDS011;49839;51.798;10.954;2022-11-15T01:28:02;8.27;;;2.75;;
63693;SDS011;49839;51.798;10.954;2022-11-15T01:30:31;7.70;;;3.28;;
63693;SDS011;49839;51.798;10.954;2022-11-15T01:32:59;6.35;;;3.08;;
63693;SDS011;49839;51.798;10.954;2022-11-15T01:35:26;6.70;;;3.00;;
63693;SDS011;49839;51.798;10.954;2022-11-15T01:37:54;6.82;;;3.33;;
63693;SDS011;49839;51.798;10.954;2022-11-15T01:40:21;6.30;;;2.95;;
63693;SDS011;49839;51.798;10.954;2022-11-15T01:42:49;8.98;;;2.45;;
63693;SDS011;49839;51.798;10.954;2022-11-15T01:45:17;6.22;;;3.05;;
63693;SDS011;49839;51.798;10.954;2022-11-15T01:47:47;7.18;;;2.80;;
63693;SDS011;49839;51.798;10.954;2022-11-15T01:50:19;7.90;;;3.00;;
63693;SDS011;49839;51.798;10.954;2022-11-15T01:52:53;5.53;;;3.03;;
63693;SDS011;49839;51.798;10.954;2022-11-15T01:55:21;10.25;;;3.17;;
63693;SDS011;49839;51.798;10.954;2022-11-15T01:57:53;8.82;;;3.70;;
63693;SDS011;49839;51.798;10.954;2022-11-15T02:00:22;6.05;;;3.15;;
63693;SDS011;49839;51.798;10.954;2022-11-15T02:02:51;8.55;;;3.30;;
63693;SDS011;49839;51.798;10.954;2022-11-15T02:05:19;8.80;;;3.07;;
63693;SDS011;49839;51.798;10.954;2022-11-15T02:07:46;6.82;;;3.13;;
63693;SDS011;49839;51.798;10.954;2022-11-15T02:10:17;9.07;;;4.10;;
63693;SDS011;49839;51.798;10.954;2022-11-15T02:12:46;6.05;;;3.50;;
63693;SDS011;49839;51.798;10.954;2022-11-15T02:15:14;6.55;;;3.13;;
63693;SDS011;49839;51.798;10.954;2022-11-15T02:17:47;5.15;;;3.08;;
63693;SDS011;49839;51.798;10.954;2022-11-15T02:23:31;7.13;;;2.95;;
63693;SDS011;49839;51.798;10.954;2022-11-15T02:26:21;8.33;;;3.43;;
63693;SDS011;49839;51.798;10.954;2022-11-15T02:29:08;6.72;;;2.90;;
63693;SDS011;49839;51.798;10.954;2022-11-15T02:31:41;7.30;;;3.30;;
63693;SDS011;49839;51.798;10.954;2022-11-15T02:34:17;6.55;;;3.33;;
63693;SDS011;49839;51.798;10.954;2022-11-15T02:36:55;6.60;;;3.05;;
63693;SDS011;49839;51.798;10.954;2022-11-15T02:39:34;7.60;;;2.83;;
63693;SDS011;49839;51.798;10.954;2022-11-15T02:42:09;6.03;;;2.90;;
63693;SDS011;49839;51.798;10.954;2022-11-15T02:44:55;8.00;;;2.78;;
63693;SDS011;49839;51.798;10.954;2022-11-15T02:47:27;7.88;;;3.00;;
63693;SDS011;49839;51.798;10.954;2022-11-15T02:49:59;7.00;;;2.90;;
63693;SDS011;49839;51.798;10.954;2022-11-15T02:52:32;8.60;;;3.22;;
63693;SDS011;49839;51.798;10.954;2022-11-15T02:55:00;5.55;;;2.78;;
63693;SDS011;49839;51.798;10.954;2022-11-15T02:57:32;5.93;;;2.75;;
63693;SDS011;49839;51.798;10.954;2022-11-15T03:00:11;8.73;;;2.90;;
63693;SDS011;49839;51.798;10.954;2022-11-15T03:02:49;6.72;;;3.40;;
63693;SDS011;49839;51.798;10.954;2022-11-15T03:05:30;7.65;;;3.13;;
63693;SDS011;49839;51.798;10.954;2022-11-15T03:08:06;5.38;;;2.90;;
63693;SDS011;49839;51.798;10.954;2022-11-15T03:10:40;6.18;;;3.10;;
63693;SDS011;49839;51.798;10.954;2022-11-15T03:13:16;6.72;;;2.78;;
63693;SDS011;49839;51.798;10.954;2022-11-15T03:15:53;7.43;;;3.35;;
63693;SDS011;49839;51.798;10.954;2022-11-15T03:18:31;5.53;;;2.47;;
63693;SDS011;49839;51.798;10.954;2022-11-15T03:21:04;6.40;;;2.90;;
63693;SDS011;49839;51.798;10.954;2022-11-15T03:23:35;5.80;;;2.95;;
63693;SDS011;49839;51.798;10.954;2022-11-15T03:26:04;8.20;;;3.55;;
63693;SDS011;49839;51.798;10.954;2022-11-15T03:28:37;6.45;;;3.33;;
63693;SDS011;49839;51.798;10.954;2022-11-15T03:31:06;7.82;;;3.35;;
63693;SDS011;49839;51.798;10.954;2022-11-15T03:33:52;5.15;;;2.40;;
63693;SDS011;49839;51.798;10.954;2022-11-15T03:36:23;5.85;;;2.90;;
63693;SDS011;49839;51.798;10.954;2022-11-15T03:38:53;6.72;;;3.03;;
63693;SDS011;49839;51.798;10.954;2022-11-15T03:41:25;7.18;;;3.30;;
63693;SDS011;49839;51.798;10.954;2022-11-15T03:43:59;6.10;;;2.78;;
63693;SDS011;49839;51.798;10.954;2022-11-15T03:46:36;6.38;;;3.50;;
63693;SDS011;49839;51.798;10.954;2022-11-15T03:49:09;7.40;;;3.35;;
63693;SDS011;49839;51.798;10.954;2022-11-15T03:51:41;7.40;;;3.58;;
63693;SDS011;49839;51.798;10.954;2022-11-15T03:54:10;6.22;;;3.17;;
63693;SDS011;49839;51.798;10.954;2022-11-15T03:56:39;6.82;;;3.28;;
63693;SDS011;49839;51.798;10.954;2022-11-15T03:59:07;8.15;;;3.13;;
63693;SDS011;49839;51.798;10.954;2022-11-15T04:01:34;10.02;;;3.78;;
63693;SDS011;49839;51.798;10.954;2022-11-15T04:04:02;6.40;;;2.78;;
63693;SDS011;49839;51.798;10.954;2022-11-15T04:06:31;8.05;;;3.40;;
63693;SDS011;49839;51.798;10.954;2022-11-15T04:08:58;7.70;;;3.30;;
63693;SDS011;49839;51.798;10.954;2022-11-15T04:11:26;8.73;;;3.25;;
63693;SDS011;49839;51.798;10.954;2022-11-15T04:13:54;5.55;;;3.05;;
63693;SDS011;49839;51.798;10.954;2022-11-15T04:16:21;6.53;;;3.40;;
63693;SDS011;49839;51.798;10.954;2022-11-15T04:18:49;6.25;;;3.10;;
63693;SDS011;49839;51.798;10.954;2022-11-15T04:21:38;9.57;;;3.85;;
63693;SDS011;49839;51.798;10.954;2022-11-15T04:24:23;7.10;;;2.88;;
63693;SDS011;49839;51.798;10.954;2022-11-15T04:26:51;8.32;;;4.00;;
63693;SDS011;49839;51.798;10.954;2022-11-15T04:29:19;9.27;;;3.30;;
63693;SDS011;49839;51.798;10.954;2022-11-15T04:32:01;7.10;;;3.50;;
63693;SDS011;49839;51.798;10.954;2022-11-15T04:34:29;6.25;;;2.95;;
63693;SDS011;49839;51.798;10.954;2022-11-15T04:36:58;9.10;;;3.63;;
63693;SDS011;49839;51.798;10.954;2022-11-15T04:39:42;8.52;;;2.80;;
63693;SDS011;49839;51.798;10.954;2022-11-15T04:42:10;7.28;;;2.78;;
63693;SDS011;49839;51.798;10.954;2022-11-15T04:44:38;5.57;;;3.22;;
63693;SDS011;49839;51.798;10.954;2022-11-15T04:47:05;6.05;;;3.10;;
63693;SDS011;49839;51.798;10.954;2022-11-15T04:49:33;6.93;;;3.03;;
63693;SDS011;49839;51.798;10.954;2022-11-15T04:52:02;6.35;;;2.70;;
63693;SDS011;49839;51.798;10.954;2022-11-15T04:54:30;7.40;;;2.88;;
63693;SDS011;49839;51.798;10.954;2022-11-15T04:56:58;8.70;;;3.55;;
63693;SDS011;49839;51.798;10.954;2022-11-15T04:59:25;6.90;;;3.70;;
63693;SDS011;49839;51.798;10.954;2022-11-15T05:01:53;8.13;;;3.33;;
63693;SDS011;49839;51.798;10.954;2022-11-15T05:04:20;8.23;;;3.25;;
63693;SDS011;49839;51.798;10.954;2022-11-15T05:06:48;6.72;;;3.20;;
63693;SDS011;49839;51.798;10.954;2022-11-15T05:09:18;7.30;;;3.58;;
63693;SDS011;49839;51.798;10.954;2022-11-15T05:11:47;7.78;;;2.97;;
63693;SDS011;49839;51.798;10.954;2022-11-15T05:14:15;6.53;;;3.33;;
63693;SDS011;49839;51.798;10.954;2022-11-15T05:16:43;9.48;;;3.45;;
63693;SDS011;49839;51.798;10.954;2022-11-15T05:19:11;10.20;;;3.33;;
63693;SDS011;49839;51.798;10.954;2022-11-15T05:21:38;8.38;;;3.33;;
63693;SDS011;49839;51.798;10.954;2022-11-15T05:24:06;8.45;;;3.65;;
63693;SDS011;49839;51.798;10.954;2022-11-15T05:26:37;7.60;;;3.30;;
63693;SDS011;49839;51.798;10.954;2022-11-15T05:29:05;7.65;;;3.30;;
63693;SDS011;49839;51.798;10.954;2022-11-15T05:31:32;8.98;;;3.55;;
63693;SDS011;49839;51.798;10.954;2022-11-15T05:34:00;5.72;;;3.10;;
63693;SDS011;49839;51.798;10.954;2022-11-15T05:36:31;6.30;;;3.65;;
63693;SDS011;49839;51.798;10.954;2022-11-15T05:39:03;7.90;;;3.35;;
63693;SDS011;49839;51.798;10.954;2022-11-15T05:41:35;6.25;;;3.50;;
63693;SDS011;49839;51.798;10.954;2022-11-15T05:44:07;18.45;;;13.18;;
63693;SDS011;49839;51.798;10.954;2022-11-15T05:46:37;13.52;;;8.93;;
63693;SDS011;49839;51.798;10.954;2022-11-15T05:49:09;11.18;;;5.68;;
63693;SDS011;49839;51.798;10.954;2022-11-15T05:51:42;14.57;;;8.43;;
63693;SDS011;49839;51.798;10.954;2022-11-15T05:54:13;7.35;;;4.57;;
63693;SDS011;49839;51.798;10.954;2022-11-15T05:56:43;6.47;;;3.73;;
63693;SDS011;49839;51.798;10.954;2022-11-15T05:59:11;8.53;;;4.30;;
63693;SDS011;49839;51.798;10.954;2022-11-15T06:01:39;8.43;;;3.75;;
63693;SDS011;49839;51.798;10.954;2022-11-15T06:04:07;8.55;;;3.17;;
63693;SDS011;49839;51.798;10.954;2022-11-15T06:06:35;6.50;;;3.55;;
63693;SDS011;49839;51.798;10.954;2022-11-15T06:09:02;6.07;;;2.97;;
63693;SDS011;49839;51.798;10.954;2022-11-15T06:11:30;7.72;;;3.45;;
63693;SDS011;49839;51.798;10.954;2022-11-15T06:13:59;7.72;;;3.65;;
63693;SDS011;49839;51.798;10.954;2022-11-15T06:16:27;6.47;;;3.40;;
63693;SDS011;49839;51.798;10.954;2022-11-15T06:18:54;8.93;;;3.70;;
63693;SDS011;49839;51.798;10.954;2022-11-15T06:21:22;8.48;;;3.55;;
63693;SDS011;49839;51.798;10.954;2022-11-15T06:23:50;6.63;;;2.92;;
63693;SDS011;49839;51.798;10.954;2022-11-15T06:26:17;9.50;;;3.78;;
63693;SDS011;49839;51.798;10.954;2022-11-15T06:28:45;6.57;;;3.50;;
63693;SDS011;49839;51.798;10.954;2022-11-15T06:31:14;8.38;;;3.42;;
63693;SDS011;49839;51.798;10.954;2022-11-15T06:33:42;6.17;;;3.17;;
63693;SDS011;49839;51.798;10.954;2022-11-15T06:36:10;6.07;;;3.30;;
63693;SDS011;49839;51.798;10.954;2022-11-15T06:38:43;7.95;;;4.03;;
63693;SDS011;49839;51.798;10.954;2022-11-15T06:41:11;7.47;;;4.00;;
63693;SDS011;49839;51.798;10.954;2022-11-15T06:43:40;12.75;;;5.18;;
63693;SDS011;49839;51.798;10.954;2022-11-15T06:46:08;7.28;;;3.60;;
63693;SDS011;49839;51.798;10.954;2022-11-15T06:48:37;8.05;;;3.65;;
63693;SDS011;49839;51.798;10.954;2022-11-15T06:51:05;7.50;;;3.58;;
63693;SDS011;49839;51.798;10.954;2022-11-15T06:53:34;8.43;;;3.53;;
63693;SDS011;49839;51.798;10.954;2022-11-15T06:56:02;10.30;;;4.70;;
63693;SDS011;49839;51.798;10.954;2022-11-15T06:58:32;7.68;;;3.38;;
63693;SDS011;49839;51.798;10.954;2022-11-15T07:01:00;5.72;;;2.78;;
63693;SDS011;49839;51.798;10.954;2022-11-15T07:03:28;6.10;;;3.15;;
63693;SDS011;49839;51.798;10.954;2022-11-15T07:05:58;9.18;;;3.67;;
63693;SDS011;49839;51.798;10.954;2022-11-15T07:08:32;6.93;;;3.60;;
63693;SDS011;49839;51.798;10.954;2022-11-15T07:11:01;11.88;;;3.60;;
63693;SDS011;49839;51.798;10.954;2022-11-15T07:13:30;9.07;;;4.00;;
63693;SDS011;49839;51.798;10.954;2022-11-15T07:16:01;8.55;;;3.95;;
63693;SDS011;49839;51.798;10.954;2022-11-15T07:18:29;8.20;;;3.42;;
63693;SDS011;49839;51.798;10.954;2022-11-15T07:21:01;6.65;;;3.15;;
63693;SDS011;49839;51.798;10.954;2022-11-15T07:23:29;8.35;;;3.45;;
63693;SDS011;49839;51.798;10.954;2022-11-15T07:25:58;10.30;;;3.97;;
63693;SDS011;49839;51.798;10.954;2022-11-15T07:28:26;7.57;;;3.38;;
63693;SDS011;49839;51.798;10.954;2022-11-15T07:30:54;6.78;;;2.70;;
63693;SDS011;49839;51.798;10.954;2022-11-15T07:33:22;6.82;;;2.72;;
63693;SDS011;49839;51.798;10.954;2022-11-15T07:35:50;7.80;;;3.47;;
63693;SDS011;49839;51.798;10.954;2022-11-15T07:38:19;7.70;;;3.15;;
63693;SDS011;49839;51.798;10.954;2022-11-15T07:40:46;8.77;;;4.28;;
63693;SDS011;49839;51.798;10.954;2022-11-15T07:43:22;8.18;;;3.25;;
63693;SDS011;49839;51.798;10.954;2022-11-15T07:45:50;6.68;;;3.10;;
63693;SDS011;49839;51.798;10.954;2022-11-15T07:48:24;6.03;;;2.83;;
63693;SDS011;49839;51.798;10.954;2022-11-15T07:51:01;10.07;;;3.25;;
63693;SDS011;49839;51.798;10.954;2022-11-15T07:53:30;8.82;;;2.75;;
63693;SDS011;49839;51.798;10.954;2022-11-15T07:55:58;8.02;;;2.55;;
63693;SDS011;49839;51.798;10.954;2022-11-15T07:58:26;5.82;;;2.55;;
63693;SDS011;49839;51.798;10.954;2022-11-15T08:00:53;7.60;;;2.88;;
63693;SDS011;49839;51.798;10.954;2022-11-15T08:03:21;6.82;;;3.00;;
63693;SDS011;49839;51.798;10.954;2022-11-15T08:05:49;7.90;;;2.92;;
63693;SDS011;49839;51.798;10.954;2022-11-15T08:08:18;7.10;;;3.30;;
63693;SDS011;49839;51.798;10.954;2022-11-15T08:10:47;6.30;;;2.85;;
63693;SDS011;49839;51.798;10.954;2022-11-15T08:13:15;8.20;;;3.33;;
63693;SDS011;49839;51.798;10.954;2022-11-15T08:15:42;5.72;;;3.10;;
63693;SDS011;49839;51.798;10.954;2022-11-15T08:18:11;6.72;;;2.92;;
63693;SDS011;49839;51.798;10.954;2022-11-15T08:20:40;8.30;;;3.45;;
63693;SDS011;49839;51.798;10.954;2022-11-15T08:23:09;7.55;;;3.50;;
63693;SDS011;49839;51.798;10.954;2022-11-15T08:25:38;7.95;;;4.03;;
63693;SDS011;49839;51.798;10.954;2022-11-15T08:28:08;7.35;;;3.58;;
63693;SDS011;49839;51.798;10.954;2022-11-15T08:30:37;6.57;;;3.35;;
63693;SDS011;49839;51.798;10.954;2022-11-15T08:33:10;5.10;;;2.63;;
63693;SDS011;49839;51.798;10.954;2022-11-15T08:35:38;5.93;;;2.75;;
63693;SDS011;49839;51.798;10.954;2022-11-15T08:38:06;6.15;;;2.75;;
63693;SDS011;49839;51.798;10.954;2022-11-15T08:40:34;6.75;;;3.00;;
63693;SDS011;49839;51.798;10.954;2022-11-15T08:43:02;7.95;;;3.55;;
63693;SDS011;49839;51.798;10.954;2022-11-15T08:45:33;5.35;;;2.70;;
63693;SDS011;49839;51.798;10.954;2022-11-15T08:48:02;8.60;;;2.65;;
63693;SDS011;49839;51.798;10.954;2022-11-15T08:50:30;7.32;;;3.17;;
63693;SDS011;49839;51.798;10.954;2022-11-15T08:53:03;5.68;;;2.40;;
63693;SDS011;49839;51.798;10.954;2022-11-15T08:55:32;6.20;;;2.60;;
63693;SDS011;49839;51.798;10.954;2022-11-15T08:58:00;7.13;;;2.90;;
63693;SDS011;49839;51.798;10.954;2022-11-15T09:00:27;6.18;;;2.60;;
63693;SDS011;49839;51.798;10.954;2022-11-15T09:02:56;6.70;;;2.60;;
63693;SDS011;49839;51.798;10.954;2022-11-15T09:05:25;7.10;;;2.70;;
63693;SDS011;49839;51.798;10.954;2022-11-15T09:07:53;5.60;;;2.20;;
63693;SDS011;49839;51.798;10.954;2022-11-15T09:10:22;7.63;;;2.70;;
63693;SDS011;49839;51.798;10.954;2022-11-15T09:12:50;4.47;;;2.22;;
63693;SDS011;49839;51.798;10.954;2022-11-15T09:15:20;5.82;;;2.58;;
63693;SDS011;49839;51.798;10.954;2022-11-15T09:17:47;5.28;;;2.20;;
63693;SDS011;49839;51.798;10.954;2022-11-15T09:20:16;5.55;;;2.40;;
63693;SDS011;49839;51.798;10.954;2022-11-15T09:22:44;6.47;;;2.35;;
63693;SDS011;49839;51.798;10.954;2022-11-15T09:25:12;6.15;;;2.30;;
63693;SDS011;49839;51.798;10.954;2022-11-15T09:27:39;5.00;;;2.35;;
63693;SDS011;49839;51.798;10.954;2022-11-15T09:30:07;6.82;;;2.42;;
63693;SDS011;49839;51.798;10.954;2022-11-15T09:32:35;8.32;;;2.35;;
63693;SDS011;49839;51.798;10.954;2022-11-15T09:35:04;6.78;;;2.47;;
63693;SDS011;49839;51.798;10.954;2022-11-15T09:37:35;6.07;;;2.60;;
63693;SDS011;49839;51.798;10.954;2022-11-15T09:40:03;6.03;;;2.33;;
63693;SDS011;49839;51.798;10.954;2022-11-15T09:42:38;5.57;;;2.23;;
63693;SDS011;49839;51.798;10.954;2022-11-15T09:45:20;7.15;;;2.22;;
63693;SDS011;49839;51.798;10.954;2022-11-15T09:47:56;5.05;;;2.20;;
63693;SDS011;49839;51.798;10.954;2022-11-15T09:50:36;5.97;;;2.55;;
63693;SDS011;49839;51.798;10.954;2022-11-15T09:53:10;4.85;;;1.98;;
63693;SDS011;49839;51.798;10.954;2022-11-15T09:55:41;5.22;;;2.10;;
63693;SDS011;49839;51.798;10.954;2022-11-15T09:58:17;7.28;;;2.40;;
63693;SDS011;49839;51.798;10.954;2022-11-15T10:00:51;6.03;;;2.40;;
63693;SDS011;49839;51.798;10.954;2022-11-15T10:03:23;4.88;;;2.20;;
63693;SDS011;49839;51.798;10.954;2022-11-15T10:05:55;5.00;;;2.63;;
63693;SDS011;49839;51.798;10.954;2022-11-15T10:08:34;7.53;;;2.60;;
63693;SDS011;49839;51.798;10.954;2022-11-15T10:11:14;8.85;;;2.30;;
63693;SDS011;49839;51.798;10.954;2022-11-15T10:14:05;6.35;;;2.00;;
63693;SDS011;49839;51.798;10.954;2022-11-15T10:19:36;6.30;;;2.15;;
63693;SDS011;49839;51.798;10.954;2022-11-15T10:22:16;4.10;;;1.73;;
63693;SDS011;49839;51.798;10.954;2022-11-15T10:24:52;3.05;;;1.60;;
63693;SDS011;49839;51.798;10.954;2022-11-15T10:27:34;6.10;;;1.70;;
63693;SDS011;49839;51.798;10.954;2022-11-15T10:30:02;3.90;;;1.50;;
63693;SDS011;49839;51.798;10.954;2022-11-15T10:32:32;5.10;;;1.95;;
63693;SDS011;49839;51.798;10.954;2022-11-15T10:35:15;6.40;;;2.05;;
63693;SDS011;49839;51.798;10.954;2022-11-15T10:37:47;5.45;;;1.77;;
63693;SDS011;49839;51.798;10.954;2022-11-15T10:40:17;5.25;;;2.03;;
63693;SDS011;49839;51.798;10.954;2022-11-15T10:42:48;5.72;;;2.03;;
63693;SDS011;49839;51.798;10.954;2022-11-15T10:45:23;5.38;;;2.03;;
63693;SDS011;49839;51.798;10.954;2022-11-15T10:47:54;4.20;;;1.98;;
63693;SDS011;49839;51.798;10.954;2022-11-15T10:50:52;4.70;;;1.85;;
63693;SDS011;49839;51.798;10.954;2022-11-15T10:53:29;4.03;;;2.10;;
63693;SDS011;49839;51.798;10.954;2022-11-15T10:56:06;4.03;;;1.60;;
63693;SDS011;49839;51.798;10.954;2022-11-15T10:58:39;5.43;;;1.50;;
63693;SDS011;49839;51.798;10.954;2022-11-15T11:01:10;3.58;;;1.80;;
63693;SDS011;49839;51.798;10.954;2022-11-15T11:03:42;6.60;;;1.90;;
63693;SDS011;49839;51.798;10.954;2022-11-15T11:06:12;4.85;;;1.80;;
63693;SDS011;49839;51.798;10.954;2022-11-15T11:08:52;5.20;;;2.00;;
63693;SDS011;49839;51.798;10.954;2022-11-15T11:11:21;6.10;;;2.00;;
63693;SDS011;49839;51.798;10.954;2022-11-15T11:13:50;3.50;;;1.60;;
63693;SDS011;49839;51.798;10.954;2022-11-15T11:16:30;8.00;;;1.65;;
63693;SDS011;49839;51.798;10.954;2022-11-15T11:19:30;3.95;;;1.63;;
63693;SDS011;49839;51.798;10.954;2022-11-15T11:22:06;4.30;;;1.55;;
63693;SDS011;49839;51.798;10.954;2022-11-15T11:24:42;2.70;;;1.40;;
63693;SDS011;49839;51.798;10.954;2022-11-15T11:27:21;6.28;;;1.58;;
63693;SDS011;49839;51.798;10.954;2022-11-15T11:30:06;4.20;;;1.75;;
63693;SDS011;49839;51.798;10.954;2022-11-15T11:38:11;6.38;;;1.92;;
63693;SDS011;49839;51.798;10.954;2022-11-15T11:40:52;5.22;;;1.67;;
63693;SDS011;49839;51.798;10.954;2022-11-15T11:43:30;5.78;;;2.00;;
63693;SDS011;49839;51.798;10.954;2022-11-15T11:46:16;4.88;;;1.75;;
63693;SDS011;49839;51.798;10.954;2022-11-15T11:48:59;2.78;;;1.20;;
63693;SDS011;49839;51.798;10.954;2022-11-15T11:51:34;3.50;;;1.00;;
63693;SDS011;49839;51.798;10.954;2022-11-15T11:54:10;5.65;;;1.40;;
63693;SDS011;49839;51.798;10.954;2022-11-15T11:56:41;5.40;;;1.98;;
63693;SDS011;49839;51.798;10.954;2022-11-15T11:59:16;4.57;;;1.90;;
63693;SDS011;49839;51.798;10.954;2022-11-15T12:01:49;3.90;;;1.58;;
63693;SDS011;49839;51.798;10.954;2022-11-15T12:04:24;4.18;;;1.42;;
63693;SDS011;49839;51.798;10.954;2022-11-15T12:07:00;4.28;;;1.33;;
63693;SDS011;49839;51.798;10.954;2022-11-15T12:09:34;3.33;;;1.40;;
63693;SDS011;49839;51.798;10.954;2022-11-15T12:12:06;4.40;;;1.80;;
63693;SDS011;49839;51.798;10.954;2022-11-15T12:14:40;3.92;;;1.30;;
63693;SDS011;49839;51.798;10.954;2022-11-15T12:17:13;2.70;;;1.40;;
63693;SDS011;49839;51.798;10.954;2022-11-15T12:19:43;2.95;;;1.30;;
63693;SDS011;49839;51.798;10.954;2022-11-15T12:22:13;2.83;;;1.15;;
63693;SDS011;49839;51.798;10.954;2022-11-15T12:24:48;3.45;;;1.27;;
63693;SDS011;49839;51.798;10.954;2022-11-15T12:27:29;3.72;;;1.20;;
63693;SDS011;49839;51.798;10.954;2022-11-15T12:30:03;3.63;;;1.33;;
63693;SDS011;49839;51.798;10.954;2022-11-15T12:32:37;3.75;;;1.20;;
63693;SDS011;49839;51.798;10.954;2022-11-15T12:35:20;2.22;;;1.02;;
63693;SDS011;49839;51.798;10.954;2022-11-15T12:37:57;3.45;;;1.15;;
63693;SDS011;49839;51.798;10.954;2022-11-15T12:40:30;3.85;;;1.40;;
63693;SDS011;49839;51.798;10.954;2022-11-15T12:43:04;3.25;;;1.25;;
63693;SDS011;49839;51.798;10.954;2022-11-15T12:46:01;6.78;;;1.50;;
63693;SDS011;49839;51.798;10.954;2022-11-15T12:57:34;4.10;;;1.30;;
63693;SDS011;49839;51.798;10.954;2022-11-15T13:03:25;5.35;;;1.33;;
63693;SDS011;49839;51.798;10.954;2022-11-15T13:05:58;3.15;;;1.40;;
63693;SDS011;49839;51.798;10.954;2022-11-15T13:08:37;6.10;;;1.67;;
63693;SDS011;49839;51.798;10.954;2022-11-15T13:17:28;4.97;;;1.60;;
63693;SDS011;49839;51.798;10.954;2022-11-15T13:20:15;5.90;;;1.80;;
63693;SDS011;49839;51.798;10.954;2022-11-15T13:22:47;3.70;;;1.50;;
63693;SDS011;49839;51.798;10.954;2022-11-15T13:28:26;5.70;;;1.42;;
63693;SDS011;49839;51.798;10.954;2022-11-15T13:30:59;4.47;;;1.65;;
63693;SDS011;49839;51.798;10.954;2022-11-15T13:33:31;4.10;;;1.50;;
63693;SDS011;49839;51.798;10.954;2022-11-15T13:36:02;5.13;;;1.92;;
63693;SDS011;49839;51.798;10.954;2022-11-15T13:38:33;5.45;;;3.40;;
63693;SDS011;49839;51.798;10.954;2022-11-15T13:41:10;5.80;;;3.20;;
63693;SDS011;49839;51.798;10.954;2022-11-15T13:43:41;6.15;;;3.10;;
63693;SDS011;49839;51.798;10.954;2022-11-15T13:46:11;3.08;;;1.50;;
63693;SDS011;49839;51.798;10.954;2022-11-15T13:48:42;3.60;;;1.50;;
63693;SDS011;49839;51.798;10.954;2022-11-15T13:51:14;5.13;;;1.70;;
63693;SDS011;49839;51.798;10.954;2022-11-15T13:53:49;3.28;;;1.27;;
63693;SDS011;49839;51.798;10.954;2022-11-15T13:56:20;5.20;;;1.85;;
63693;SDS011;49839;51.798;10.954;2022-11-15T13:58:48;3.33;;;1.55;;
63693;SDS011;49839;51.798;10.954;2022-11-15T14:01:17;5.85;;;1.90;;
63693;SDS011;49839;51.798;10.954;2022-11-15T14:03:49;3.38;;;1.55;;
63693;SDS011;49839;51.798;10.954;2022-11-15T14:06:20;6.22;;;1.80;;
63693;SDS011;49839;51.798;10.954;2022-11-15T14:11:55;4.07;;;1.65;;
63693;SDS011;49839;51.798;10.954;2022-11-15T14:14:24;6.45;;;1.67;;
63693;SDS011;49839;51.798;10.954;2022-11-15T14:16:53;6.43;;;2.22;;
63693;SDS011;49839;51.798;10.954;2022-11-15T14:19:34;6.22;;;1.85;;
63693;SDS011;49839;51.798;10.954;2022-11-15T14:22:10;7.20;;;1.90;;
63693;SDS011;49839;51.798;10.954;2022-11-15T14:24:41;4.38;;;1.90;;
63693;SDS011;49839;51.798;10.954;2022-11-15T14:27:18;6.53;;;2.15;;
63693;SDS011;49839;51.798;10.954;2022-11-15T14:29:47;5.25;;;1.98;;
63693;SDS011;49839;51.798;10.954;2022-11-15T14:32:16;7.47;;;2.70;;
63693;SDS011;49839;51.798;10.954;2022-11-15T14:34:47;7.20;;;2.38;;
63693;SDS011;49839;51.798;10.954;2022-11-15T14:37:20;6.22;;;2.50;;
63693;SDS011;49839;51.798;10.954;2022-11-15T14:39:49;5.10;;;2.30;;
63693;SDS011;49839;51.798;10.954;2022-11-15T14:42:18;7.43;;;2.53;;
63693;SDS011;49839;51.798;10.954;2022-11-15T14:44:46;6.28;;;2.50;;
63693;SDS011;49839;51.798;10.954;2022-11-15T14:47:14;4.15;;;2.13;;
63693;SDS011;49839;51.798;10.954;2022-11-15T14:49:42;6.18;;;2.42;;
63693;SDS011;49839;51.798;10.954;2022-11-15T14:52:16;5.25;;;2.20;;
63693;SDS011;49839;51.798;10.954;2022-11-15T14:54:57;8.30;;;2.40;;
63693;SDS011;49839;51.798;10.954;2022-11-15T14:57:25;8.07;;;2.58;;
63693;SDS011;49839;51.798;10.954;2022-11-15T14:59:53;7.00;;;2.35;;
63693;SDS011;49839;51.798;10.954;2022-11-15T15:02:21;7.20;;;3.85;;
63693;SDS011;49839;51.798;10.954;2022-11-15T15:04:50;8.50;;;3.17;;
63693;SDS011;49839;51.798;10.954;2022-11-15T15:07:19;9.82;;;3.92;;
63693;SDS011;49839;51.798;10.954;2022-11-15T15:09:47;6.45;;;3.38;;
63693;SDS011;49839;51.798;10.954;2022-11-15T15:12:16;7.55;;;3.50;;
63693;SDS011;49839;51.798;10.954;2022-11-15T15:14:44;8.10;;;3.90;;
63693;SDS011;49839;51.798;10.954;2022-11-15T15:17:13;8.98;;;3.72;;
63693;SDS011;49839;51.798;10.954;2022-11-15T15:19:41;10.02;;;4.57;;
63693;SDS011;49839;51.798;10.954;2022-11-15T15:22:10;8.23;;;4.30;;
63693;SDS011;49839;51.798;10.954;2022-11-15T15:24:43;11.02;;;3.80;;
63693;SDS011;49839;51.798;10.954;2022-11-15T15:27:11;6.55;;;3.53;;
63693;SDS011;49839;51.798;10.954;2022-11-15T15:29:39;7.93;;;3.45;;
63693;SDS011;49839;51.798;10.954;2022-11-15T15:32:09;6.05;;;3.60;;
63693;SDS011;49839;51.798;10.954;2022-11-15T15:34:39;6.57;;;2.92;;